Etusivu
METAR-TAF:

METAR-TAF

Lentoasemat :

Odense, Tanska

Leveyspiiri: 55-29N, Pituuspiiri: 010-20E, korkeus merenpinnasta: 17 m

Tämänhetkinen sää

Tämä raportti tehtiin 32 minuuttia sitten, kello 11.50 UTC
Tuuli 20 kn pohjoisesta/koillisesta
Lämpötila 3°C
Kosteus 38%
Ilmanpaine 1033 hPa
Näkyvyys 10 km tai enemmän
Muutamia pilviä 4500 ft:n korkeudessa

METAR: EKOD 291150Z 02020KT 9999 FEW045 03/M10 Q1033

Aika: 14:22 (12:22 UTC)

Sääennuste

Tämä raportti tehtiin 3 tuntia ja 27 minuuttia sitten, kello 08.55 UTC
Ennuste voimassa 29. päivästä klo 09 UTC - 29. päivään klo 15 UTC
Tuuli 22 kn pohjoisesta/koillisesta puuskistuen 35 kn:hen
Näkyvyys 10 km tai enemmän
Muutamia pilviä 3500 ft:n korkeudessa
Ajoittain
29. päivästä klo 09 UTC - 29. päivään klo 12 UTC
Tuuli 20 kn pohjoisesta/koillisesta
Tulossa
29. päivästä klo 12 UTC - 29. päivään klo 15 UTC
Tuuli 15 kn pohjoisesta

TAF: EKOD 290855Z 2909/2915 02022G35KT 9999 FEW035 TEMPO 2909/2912 02020KT BECMG 2912/2915 01015KT

Säähavainnot ja -ennusteet yli 4000 lentoasemalta (METAR- ja TAF-raportit).

Käytössä olevat sääasemat on merkitty karttaan keltaisilla ja punaisilla pisteillä.

Aseta hiiri pisteen päälle nähdäksesi sääaseman nimen.

Klikkaa sitten nähdäksesi säähavainnot ja -ennusteet.

Kartan vaihtaminen: klikkaa mustalla rastilla varustettuja vihreitä pisteitä, niin voit zoomata sisään; viivalla varustettua vihreää pistettä, niin voit zoomata ulos tai vihreitä nuolia, niin pääset viereisille kartoille.


METAR-TAF: